sensor_id;sensor_type;location;lat;lon;timestamp;temperature;humidity
7216;DHT22;3649;48.798;9.798;2024-03-02T00:02:44;11.00;99.90
7216;DHT22;3649;48.798;9.798;2024-03-02T00:05:19;11.00;99.90
7216;DHT22;3649;48.798;9.798;2024-03-02T00:10:25;11.10;99.90
7216;DHT22;3649;48.798;9.798;2024-03-02T00:12:56;11.00;99.90
7216;DHT22;3649;48.798;9.798;2024-03-02T00:15:47;11.00;99.90
7216;DHT22;3649;48.798;9.798;2024-03-02T00:18:19;10.90;99.90
7216;DHT22;3649;48.798;9.798;2024-03-02T00:20:46;10.90;99.90
7216;DHT22;3649;48.798;9.798;2024-03-02T00:23:16;10.90;99.90
7216;DHT22;3649;48.798;9.798;2024-03-02T00:25:47;10.80;99.90
7216;DHT22;3649;48.798;9.798;2024-03-02T00:28:29;10.80;99.90
7216;DHT22;3649;48.798;9.798;2024-03-02T00:31:08;10.80;99.90
7216;DHT22;3649;48.798;9.798;2024-03-02T00:33:36;10.90;99.90
7216;DHT22;3649;48.798;9.798;2024-03-02T00:36:05;11.00;99.90
7216;DHT22;3649;48.798;9.798;2024-03-02T00:38:33;10.90;99.90
7216;DHT22;3649;48.798;9.798;2024-03-02T00:41:05;11.00;99.90
7216;DHT22;3649;48.798;9.798;2024-03-02T00:43:48;11.00;99.90
7216;DHT22;3649;48.798;9.798;2024-03-02T00:46:18;11.10;99.90
7216;DHT22;3649;48.798;9.798;2024-03-02T00:48:51;11.10;99.90
7216;DHT22;3649;48.798;9.798;2024-03-02T00:51:19;11.10;99.90
7216;DHT22;3649;48.798;9.798;2024-03-02T00:53:46;11.10;99.90
7216;DHT22;3649;48.798;9.798;2024-03-02T00:56:13;11.00;99.90
7216;DHT22;3649;48.798;9.798;2024-03-02T00:58:40;11.10;99.90
7216;DHT22;3649;48.798;9.798;2024-03-02T01:01:07;11.00;99.90
7216;DHT22;3649;48.798;9.798;2024-03-02T01:03:34;11.10;99.90
7216;DHT22;3649;48.798;9.798;2024-03-02T01:06:01;11.20;99.90
7216;DHT22;3649;48.798;9.798;2024-03-02T01:08:28;11.20;99.90
7216;DHT22;3649;48.798;9.798;2024-03-02T01:10:55;11.20;99.90
7216;DHT22;3649;48.798;9.798;2024-03-02T01:13:23;11.20;99.90
7216;DHT22;3649;48.798;9.798;2024-03-02T01:15:50;11.20;99.90
7216;DHT22;3649;48.798;9.798;2024-03-02T01:18:17;11.10;99.90
7216;DHT22;3649;48.798;9.798;2024-03-02T01:20:44;11.00;99.90
7216;DHT22;3649;48.798;9.798;2024-03-02T01:23:11;11.00;99.90
7216;DHT22;3649;48.798;9.798;2024-03-02T01:25:38;10.90;99.90
7216;DHT22;3649;48.798;9.798;2024-03-02T01:28:05;10.90;99.90
7216;DHT22;3649;48.798;9.798;2024-03-02T01:30:32;10.90;99.90
7216;DHT22;3649;48.798;9.798;2024-03-02T01:32:59;10.70;99.90
7216;DHT22;3649;48.798;9.798;2024-03-02T01:35:27;10.70;99.90
7216;DHT22;3649;48.798;9.798;2024-03-02T01:37:54;10.80;99.90
7216;DHT22;3649;48.798;9.798;2024-03-02T01:40:21;10.60;99.90
7216;DHT22;3649;48.798;9.798;2024-03-02T01:42:47;10.70;99.90
7216;DHT22;3649;48.798;9.798;2024-03-02T01:45:15;10.70;99.90
7216;DHT22;3649;48.798;9.798;2024-03-02T01:47:41;10.70;99.90
7216;DHT22;3649;48.798;9.798;2024-03-02T01:50:09;10.70;99.90
7216;DHT22;3649;48.798;9.798;2024-03-02T01:52:38;10.70;99.90
7216;DHT22;3649;48.798;9.798;2024-03-02T01:55:05;10.60;99.90
7216;DHT22;3649;48.798;9.798;2024-03-02T01:57:33;10.60;99.90
7216;DHT22;3649;48.798;9.798;2024-03-02T02:00:01;10.50;99.90
7216;DHT22;3649;48.798;9.798;2024-03-02T02:02:28;10.50;99.90
7216;DHT22;3649;48.798;9.798;2024-03-02T02:04:55;10.60;99.90
7216;DHT22;3649;48.798;9.798;2024-03-02T02:07:22;11.30;99.90
7216;DHT22;3649;48.798;9.798;2024-03-02T02:09:49;10.60;99.90
7216;DHT22;3649;48.798;9.798;2024-03-02T02:12:15;10.60;99.90
7216;DHT22;3649;48.798;9.798;2024-03-02T02:14:51;10.60;99.90
7216;DHT22;3649;48.798;9.798;2024-03-02T02:17:18;10.60;99.90
7216;DHT22;3649;48.798;9.798;2024-03-02T02:19:45;10.60;99.90
7216;DHT22;3649;48.798;9.798;2024-03-02T02:22:12;10.60;99.90
7216;DHT22;3649;48.798;9.798;2024-03-02T02:24:42;10.50;99.90
7216;DHT22;3649;48.798;9.798;2024-03-02T02:27:10;10.60;99.90
7216;DHT22;3649;48.798;9.798;2024-03-02T02:29:39;10.60;99.90
7216;DHT22;3649;48.798;9.798;2024-03-02T02:32:06;10.60;99.90
7216;DHT22;3649;48.798;9.798;2024-03-02T02:34:33;10.60;99.90
7216;DHT22;3649;48.798;9.798;2024-03-02T02:37:00;10.60;99.90
7216;DHT22;3649;48.798;9.798;2024-03-02T02:39:27;10.90;99.90
7216;DHT22;3649;48.798;9.798;2024-03-02T02:41:54;10.50;99.90
7216;DHT22;3649;48.798;9.798;2024-03-02T02:44:21;10.50;99.90
7216;DHT22;3649;48.798;9.798;2024-03-02T02:46:48;10.40;99.90
7216;DHT22;3649;48.798;9.798;2024-03-02T02:49:15;10.40;99.90
7216;DHT22;3649;48.798;9.798;2024-03-02T02:51:42;10.50;99.90
7216;DHT22;3649;48.798;9.798;2024-03-02T02:54:08;10.40;99.90
7216;DHT22;3649;48.798;9.798;2024-03-02T02:56:35;10.60;99.90
7216;DHT22;3649;48.798;9.798;2024-03-02T02:59:02;10.50;99.90
7216;DHT22;3649;48.798;9.798;2024-03-02T03:01:29;10.50;99.90
7216;DHT22;3649;48.798;9.798;2024-03-02T03:03:56;10.50;99.90
7216;DHT22;3649;48.798;9.798;2024-03-02T03:06:23;10.50;99.90
7216;DHT22;3649;48.798;9.798;2024-03-02T03:08:50;10.40;99.90
7216;DHT22;3649;48.798;9.798;2024-03-02T03:11:17;10.50;99.90
7216;DHT22;3649;48.798;9.798;2024-03-02T03:13:43;10.50;99.90
7216;DHT22;3649;48.798;9.798;2024-03-02T03:16:10;10.50;99.90
7216;DHT22;3649;48.798;9.798;2024-03-02T03:18:37;10.60;99.90
7216;DHT22;3649;48.798;9.798;2024-03-02T03:21:05;10.40;99.90
7216;DHT22;3649;48.798;9.798;2024-03-02T03:23:31;10.40;99.90
7216;DHT22;3649;48.798;9.798;2024-03-02T03:25:58;10.30;99.90
7216;DHT22;3649;48.798;9.798;2024-03-02T03:28:25;10.30;99.90
7216;DHT22;3649;48.798;9.798;2024-03-02T03:30:52;10.60;99.90
7216;DHT22;3649;48.798;9.798;2024-03-02T03:33:19;10.20;99.90
7216;DHT22;3649;48.798;9.798;2024-03-02T03:35:46;10.10;99.90
7216;DHT22;3649;48.798;9.798;2024-03-02T03:38:12;10.10;99.90
7216;DHT22;3649;48.798;9.798;2024-03-02T03:40:39;10.20;99.90
7216;DHT22;3649;48.798;9.798;2024-03-02T03:43:06;10.80;99.90
7216;DHT22;3649;48.798;9.798;2024-03-02T03:45:33;10.10;99.90
7216;DHT22;3649;48.798;9.798;2024-03-02T03:48:01;10.20;99.90
7216;DHT22;3649;48.798;9.798;2024-03-02T03:50:28;10.10;99.90
7216;DHT22;3649;48.798;9.798;2024-03-02T03:52:55;10.30;99.90
7216;DHT22;3649;48.798;9.798;2024-03-02T03:55:22;10.10;99.90
7216;DHT22;3649;48.798;9.798;2024-03-02T03:57:48;10.20;99.90
7216;DHT22;3649;48.798;9.798;2024-03-02T04:00:15;10.10;99.90
7216;DHT22;3649;48.798;9.798;2024-03-02T04:02:42;10.10;99.90
7216;DHT22;3649;48.798;9.798;2024-03-02T04:05:09;10.10;99.90
7216;DHT22;3649;48.798;9.798;2024-03-02T04:07:38;10.00;99.90
7216;DHT22;3649;48.798;9.798;2024-03-02T04:10:08;10.00;99.90
7216;DHT22;3649;48.798;9.798;2024-03-02T04:12:36;10.00;99.90
7216;DHT22;3649;48.798;9.798;2024-03-02T04:15:05;10.20;99.90
7216;DHT22;3649;48.798;9.798;2024-03-02T04:17:33;10.10;99.90
7216;DHT22;3649;48.798;9.798;2024-03-02T04:20:00;10.10;99.90
7216;DHT22;3649;48.798;9.798;2024-03-02T04:22:28;10.10;99.90
7216;DHT22;3649;48.798;9.798;2024-03-02T04:24:55;10.10;99.90
7216;DHT22;3649;48.798;9.798;2024-03-02T04:27:22;10.00;99.90
7216;DHT22;3649;48.798;9.798;2024-03-02T04:29:49;9.90;99.90
7216;DHT22;3649;48.798;9.798;2024-03-02T04:32:16;9.90;99.90
7216;DHT22;3649;48.798;9.798;2024-03-02T04:34:43;9.90;99.90
7216;DHT22;3649;48.798;9.798;2024-03-02T04:37:11;9.90;99.90
7216;DHT22;3649;48.798;9.798;2024-03-02T04:39:39;9.90;99.90
7216;DHT22;3649;48.798;9.798;2024-03-02T04:42:06;10.00;99.90
7216;DHT22;3649;48.798;9.798;2024-03-02T04:44:33;10.00;99.90
7216;DHT22;3649;48.798;9.798;2024-03-02T04:46:59;9.90;99.90
7216;DHT22;3649;48.798;9.798;2024-03-02T04:49:26;9.80;99.90
7216;DHT22;3649;48.798;9.798;2024-03-02T04:51:53;9.80;99.90
7216;DHT22;3649;48.798;9.798;2024-03-02T04:54:20;9.80;99.90
7216;DHT22;3649;48.798;9.798;2024-03-02T04:56:47;9.90;99.90
7216;DHT22;3649;48.798;9.798;2024-03-02T04:59:18;9.80;99.90
7216;DHT22;3649;48.798;9.798;2024-03-02T05:01:45;9.70;99.90
7216;DHT22;3649;48.798;9.798;2024-03-02T05:04:12;9.70;99.90
7216;DHT22;3649;48.798;9.798;2024-03-02T05:06:40;9.70;99.90
7216;DHT22;3649;48.798;9.798;2024-03-02T05:09:08;9.80;99.90
7216;DHT22;3649;48.798;9.798;2024-03-02T05:11:35;9.90;99.90
7216;DHT22;3649;48.798;9.798;2024-03-02T05:14:05;9.90;99.90
7216;DHT22;3649;48.798;9.798;2024-03-02T05:16:34;9.80;99.90
7216;DHT22;3649;48.798;9.798;2024-03-02T05:19:01;9.80;99.90
7216;DHT22;3649;48.798;9.798;2024-03-02T05:21:28;9.70;99.90
7216;DHT22;3649;48.798;9.798;2024-03-02T05:23:55;9.70;99.90
7216;DHT22;3649;48.798;9.798;2024-03-02T05:26:22;9.70;99.90
7216;DHT22;3649;48.798;9.798;2024-03-02T05:28:49;9.70;99.90
7216;DHT22;3649;48.798;9.798;2024-03-02T05:31:16;9.70;99.90
7216;DHT22;3649;48.798;9.798;2024-03-02T05:33:43;9.80;99.90
7216;DHT22;3649;48.798;9.798;2024-03-02T05:36:10;11.00;99.90
7216;DHT22;3649;48.798;9.798;2024-03-02T05:38:37;9.70;99.90
7216;DHT22;3649;48.798;9.798;2024-03-02T05:41:04;9.70;99.90
7216;DHT22;3649;48.798;9.798;2024-03-02T05:43:31;9.70;99.90
7216;DHT22;3649;48.798;9.798;2024-03-02T05:45:58;9.70;99.90
7216;DHT22;3649;48.798;9.798;2024-03-02T05:48:25;9.70;99.90
7216;DHT22;3649;48.798;9.798;2024-03-02T05:50:52;9.80;99.90
7216;DHT22;3649;48.798;9.798;2024-03-02T05:53:18;9.80;99.90
7216;DHT22;3649;48.798;9.798;2024-03-02T05:55:45;9.80;99.90
7216;DHT22;3649;48.798;9.798;2024-03-02T05:58:12;9.80;99.90
7216;DHT22;3649;48.798;9.798;2024-03-02T06:00:54;10.00;99.90
7216;DHT22;3649;48.798;9.798;2024-03-02T06:03:21;9.80;99.90
7216;DHT22;3649;48.798;9.798;2024-03-02T06:05:49;9.70;99.90
7216;DHT22;3649;48.798;9.798;2024-03-02T06:08:16;9.80;99.90
7216;DHT22;3649;48.798;9.798;2024-03-02T06:10:43;9.80;99.90
7216;DHT22;3649;48.798;9.798;2024-03-02T06:13:10;9.80;99.90
7216;DHT22;3649;48.798;9.798;2024-03-02T06:15:37;9.80;99.90
7216;DHT22;3649;48.798;9.798;2024-03-02T06:18:04;9.80;99.90
7216;DHT22;3649;48.798;9.798;2024-03-02T06:20:33;9.70;99.90
7216;DHT22;3649;48.798;9.798;2024-03-02T06:23:03;9.70;99.90
7216;DHT22;3649;48.798;9.798;2024-03-02T06:25:30;9.60;99.90
7216;DHT22;3649;48.798;9.798;2024-03-02T06:27:57;9.60;99.90
7216;DHT22;3649;48.798;9.798;2024-03-02T06:30:25;9.90;99.90
7216;DHT22;3649;48.798;9.798;2024-03-02T06:32:52;9.70;99.90
7216;DHT22;3649;48.798;9.798;2024-03-02T06:35:19;9.70;99.90
7216;DHT22;3649;48.798;9.798;2024-03-02T06:37:46;9.70;99.90
7216;DHT22;3649;48.798;9.798;2024-03-02T06:40:13;9.70;99.90
7216;DHT22;3649;48.798;9.798;2024-03-02T06:42:39;9.80;99.90
7216;DHT22;3649;48.798;9.798;2024-03-02T06:45:06;9.80;99.90
7216;DHT22;3649;48.798;9.798;2024-03-02T06:47:33;9.80;99.90
7216;DHT22;3649;48.798;9.798;2024-03-02T06:50:00;9.90;99.90
7216;DHT22;3649;48.798;9.798;2024-03-02T06:52:27;10.90;99.90
7216;DHT22;3649;48.798;9.798;2024-03-02T06:54:54;9.80;99.90
7216;DHT22;3649;48.798;9.798;2024-03-02T06:57:21;9.90;99.90
7216;DHT22;3649;48.798;9.798;2024-03-02T06:59:48;9.90;99.90
7216;DHT22;3649;48.798;9.798;2024-03-02T07:02:17;9.80;99.90
7216;DHT22;3649;48.798;9.798;2024-03-02T07:04:44;9.80;99.90
7216;DHT22;3649;48.798;9.798;2024-03-02T07:07:12;9.80;99.90
7216;DHT22;3649;48.798;9.798;2024-03-02T07:09:39;9.80;99.90
7216;DHT22;3649;48.798;9.798;2024-03-02T07:12:06;9.80;99.90
7216;DHT22;3649;48.798;9.798;2024-03-02T07:14:33;9.80;99.90
7216;DHT22;3649;48.798;9.798;2024-03-02T07:17:18;9.80;99.90
7216;DHT22;3649;48.798;9.798;2024-03-02T07:19:45;9.90;99.90
7216;DHT22;3649;48.798;9.798;2024-03-02T07:22:13;9.90;99.90
7216;DHT22;3649;48.798;9.798;2024-03-02T07:24:41;9.90;99.90
7216;DHT22;3649;48.798;9.798;2024-03-02T07:27:12;9.90;99.90
7216;DHT22;3649;48.798;9.798;2024-03-02T07:29:40;9.90;99.90
7216;DHT22;3649;48.798;9.798;2024-03-02T07:32:07;9.90;99.90
7216;DHT22;3649;48.798;9.798;2024-03-02T07:34:34;9.80;99.90
7216;DHT22;3649;48.798;9.798;2024-03-02T07:37:02;9.90;99.90
7216;DHT22;3649;48.798;9.798;2024-03-02T07:39:29;10.00;99.90
7216;DHT22;3649;48.798;9.798;2024-03-02T07:41:56;10.00;99.90
7216;DHT22;3649;48.798;9.798;2024-03-02T07:44:23;10.10;99.90
7216;DHT22;3649;48.798;9.798;2024-03-02T07:46:50;10.00;99.90
7216;DHT22;3649;48.798;9.798;2024-03-02T07:49:18;10.10;99.90
7216;DHT22;3649;48.798;9.798;2024-03-02T07:51:45;10.20;99.90
7216;DHT22;3649;48.798;9.798;2024-03-02T07:54:12;10.20;99.90
7216;DHT22;3649;48.798;9.798;2024-03-02T07:56:39;10.20;99.90
7216;DHT22;3649;48.798;9.798;2024-03-02T07:59:06;10.20;99.90
7216;DHT22;3649;48.798;9.798;2024-03-02T08:01:34;10.20;99.90
7216;DHT22;3649;48.798;9.798;2024-03-02T08:04:02;10.40;99.90
7216;DHT22;3649;48.798;9.798;2024-03-02T08:06:32;10.40;99.90
7216;DHT22;3649;48.798;9.798;2024-03-02T08:09:00;10.50;99.90
7216;DHT22;3649;48.798;9.798;2024-03-02T08:11:27;10.60;99.90
7216;DHT22;3649;48.798;9.798;2024-03-02T08:13:55;10.70;99.90
7216;DHT22;3649;48.798;9.798;2024-03-02T08:16:23;10.80;99.90
7216;DHT22;3649;48.798;9.798;2024-03-02T08:18:50;10.80;99.90
7216;DHT22;3649;48.798;9.798;2024-03-02T08:21:17;10.80;99.90
7216;DHT22;3649;48.798;9.798;2024-03-02T08:23:44;10.90;99.90
7216;DHT22;3649;48.798;9.798;2024-03-02T08:26:11;11.00;99.90
7216;DHT22;3649;48.798;9.798;2024-03-02T08:28:39;11.00;99.90
7216;DHT22;3649;48.798;9.798;2024-03-02T08:31:09;11.10;99.90
7216;DHT22;3649;48.798;9.798;2024-03-02T08:33:36;11.20;99.90
7216;DHT22;3649;48.798;9.798;2024-03-02T08:36:05;11.30;99.90
7216;DHT22;3649;48.798;9.798;2024-03-02T08:38:33;11.40;99.90
7216;DHT22;3649;48.798;9.798;2024-03-02T08:40:59;11.70;99.90
7216;DHT22;3649;48.798;9.798;2024-03-02T08:43:26;11.70;99.90
7216;DHT22;3649;48.798;9.798;2024-03-02T08:45:53;11.80;99.90
7216;DHT22;3649;48.798;9.798;2024-03-02T08:48:20;11.90;99.90
7216;DHT22;3649;48.798;9.798;2024-03-02T08:50:47;12.00;99.90
7216;DHT22;3649;48.798;9.798;2024-03-02T08:53:14;12.10;99.90
7216;DHT22;3649;48.798;9.798;2024-03-02T08:55:48;12.20;99.90
7216;DHT22;3649;48.798;9.798;2024-03-02T08:58:16;12.40;99.90
7216;DHT22;3649;48.798;9.798;2024-03-02T09:00:43;12.70;99.90
7216;DHT22;3649;48.798;9.798;2024-03-02T09:03:10;12.40;99.90
7216;DHT22;3649;48.798;9.798;2024-03-02T09:05:37;12.50;99.90
7216;DHT22;3649;48.798;9.798;2024-03-02T09:08:04;12.50;99.90
7216;DHT22;3649;48.798;9.798;2024-03-02T09:10:32;12.50;99.90
7216;DHT22;3649;48.798;9.798;2024-03-02T09:12:59;12.60;99.90
7216;DHT22;3649;48.798;9.798;2024-03-02T09:15:26;12.90;99.90
7216;DHT22;3649;48.798;9.798;2024-03-02T09:17:53;12.80;99.90
7216;DHT22;3649;48.798;9.798;2024-03-02T09:20:20;12.80;99.90
7216;DHT22;3649;48.798;9.798;2024-03-02T09:22:47;12.80;99.90
7216;DHT22;3649;48.798;9.798;2024-03-02T09:25:15;12.80;99.90
7216;DHT22;3649;48.798;9.798;2024-03-02T09:27:43;12.90;99.90
7216;DHT22;3649;48.798;9.798;2024-03-02T09:30:11;13.00;99.90
7216;DHT22;3649;48.798;9.798;2024-03-02T09:32:38;13.00;99.90
7216;DHT22;3649;48.798;9.798;2024-03-02T09:35:05;13.20;99.90
7216;DHT22;3649;48.798;9.798;2024-03-02T09:37:32;13.10;99.90
7216;DHT22;3649;48.798;9.798;2024-03-02T09:39:59;14.60;99.90
7216;DHT22;3649;48.798;9.798;2024-03-02T09:42:26;13.20;99.90
7216;DHT22;3649;48.798;9.798;2024-03-02T09:44:54;13.20;99.90
7216;DHT22;3649;48.798;9.798;2024-03-02T09:47:21;13.30;99.90
7216;DHT22;3649;48.798;9.798;2024-03-02T09:49:48;13.30;99.90
7216;DHT22;3649;48.798;9.798;2024-03-02T09:52:16;13.40;99.90
7216;DHT22;3649;48.798;9.798;2024-03-02T09:54:42;13.40;99.90
7216;DHT22;3649;48.798;9.798;2024-03-02T09:57:10;13.50;99.90
7216;DHT22;3649;48.798;9.798;2024-03-02T09:59:37;13.50;99.90
7216;DHT22;3649;48.798;9.798;2024-03-02T10:02:03;13.50;99.90
7216;DHT22;3649;48.798;9.798;2024-03-02T10:04:34;13.50;99.90
7216;DHT22;3649;48.798;9.798;2024-03-02T10:09:37;13.60;99.90
7216;DHT22;3649;48.798;9.798;2024-03-02T10:12:06;13.60;99.90
7216;DHT22;3649;48.798;9.798;2024-03-02T10:14:33;13.60;99.90
7216;DHT22;3649;48.798;9.798;2024-03-02T10:17:10;13.60;99.90
7216;DHT22;3649;48.798;9.798;2024-03-02T10:19:38;13.70;99.90
7216;DHT22;3649;48.798;9.798;2024-03-02T10:22:08;13.80;99.90
7216;DHT22;3649;48.798;9.798;2024-03-02T10:24:43;13.80;99.90
7216;DHT22;3649;48.798;9.798;2024-03-02T10:27:17;13.70;99.90
7216;DHT22;3649;48.798;9.798;2024-03-02T10:29:46;13.70;99.90
7216;DHT22;3649;48.798;9.798;2024-03-02T10:32:14;13.70;99.90
7216;DHT22;3649;48.798;9.798;2024-03-02T10:34:44;13.80;99.90
7216;DHT22;3649;48.798;9.798;2024-03-02T10:37:12;13.80;99.90
7216;DHT22;3649;48.798;9.798;2024-03-02T10:39:40;13.80;99.90
7216;DHT22;3649;48.798;9.798;2024-03-02T10:42:08;13.80;99.90
7216;DHT22;3649;48.798;9.798;2024-03-02T10:44:35;13.90;99.90
7216;DHT22;3649;48.798;9.798;2024-03-02T10:47:04;13.90;99.90
7216;DHT22;3649;48.798;9.798;2024-03-02T10:49:33;14.00;99.90
7216;DHT22;3649;48.798;9.798;2024-03-02T10:52:01;14.00;99.90
7216;DHT22;3649;48.798;9.798;2024-03-02T10:54:28;14.70;99.90
7216;DHT22;3649;48.798;9.798;2024-03-02T10:57:05;14.10;99.90
7216;DHT22;3649;48.798;9.798;2024-03-02T10:59:35;14.10;99.90
7216;DHT22;3649;48.798;9.798;2024-03-02T11:02:04;14.10;99.90
7216;DHT22;3649;48.798;9.798;2024-03-02T11:04:34;14.10;99.90
7216;DHT22;3649;48.798;9.798;2024-03-02T11:07:09;14.20;99.90
7216;DHT22;3649;48.798;9.798;2024-03-02T11:09:45;14.30;99.90
7216;DHT22;3649;48.798;9.798;2024-03-02T11:12:17;14.30;99.90
7216;DHT22;3649;48.798;9.798;2024-03-02T11:14:47;14.30;99.90
7216;DHT22;3649;48.798;9.798;2024-03-02T11:17:15;14.30;99.90
7216;DHT22;3649;48.798;9.798;2024-03-02T11:19:44;14.30;99.90
7216;DHT22;3649;48.798;9.798;2024-03-02T11:22:14;14.30;99.90
7216;DHT22;3649;48.798;9.798;2024-03-02T11:24:49;14.30;99.90
7216;DHT22;3649;48.798;9.798;2024-03-02T11:33:03;14.40;99.90
7216;DHT22;3649;48.798;9.798;2024-03-02T11:35:42;14.30;99.90
7216;DHT22;3649;48.798;9.798;2024-03-02T11:38:10;14.40;99.90
7216;DHT22;3649;48.798;9.798;2024-03-02T11:40:39;14.40;99.90
7216;DHT22;3649;48.798;9.798;2024-03-02T11:43:07;14.40;99.90
7216;DHT22;3649;48.798;9.798;2024-03-02T11:45:36;14.50;99.90
7216;DHT22;3649;48.798;9.798;2024-03-02T11:48:08;14.50;99.90
7216;DHT22;3649;48.798;9.798;2024-03-02T11:50:46;14.50;99.90
7216;DHT22;3649;48.798;9.798;2024-03-02T11:53:14;14.50;99.90
7216;DHT22;3649;48.798;9.798;2024-03-02T11:55:41;14.60;99.90
7216;DHT22;3649;48.798;9.798;2024-03-02T11:58:14;14.60;99.90
7216;DHT22;3649;48.798;9.798;2024-03-02T12:00:41;14.60;99.90
7216;DHT22;3649;48.798;9.798;2024-03-02T12:03:09;14.60;99.90
7216;DHT22;3649;48.798;9.798;2024-03-02T12:05:39;14.60;99.90
7216;DHT22;3649;48.798;9.798;2024-03-02T12:08:06;14.60;99.90
7216;DHT22;3649;48.798;9.798;2024-03-02T12:10:35;14.70;99.90
7216;DHT22;3649;48.798;9.798;2024-03-02T12:13:03;15.00;99.90
7216;DHT22;3649;48.798;9.798;2024-03-02T12:15:33;14.70;99.90
7216;DHT22;3649;48.798;9.798;2024-03-02T12:18:01;15.90;99.90
7216;DHT22;3649;48.798;9.798;2024-03-02T12:20:30;14.70;99.90
7216;DHT22;3649;48.798;9.798;2024-03-02T12:22:59;14.80;99.90
7216;DHT22;3649;48.798;9.798;2024-03-02T12:25:26;15.00;99.90
7216;DHT22;3649;48.798;9.798;2024-03-02T12:27:56;14.90;99.80
7216;DHT22;3649;48.798;9.798;2024-03-02T12:30:24;14.90;99.90
7216;DHT22;3649;48.798;9.798;2024-03-02T12:32:51;14.90;99.90
7216;DHT22;3649;48.798;9.798;2024-03-02T12:35:18;14.90;99.90
7216;DHT22;3649;48.798;9.798;2024-03-02T12:37:49;15.00;99.90
7216;DHT22;3649;48.798;9.798;2024-03-02T12:40:18;14.90;99.70
7216;DHT22;3649;48.798;9.798;2024-03-02T12:42:46;15.00;99.90
7216;DHT22;3649;48.798;9.798;2024-03-02T12:45:13;15.00;99.60
7216;DHT22;3649;48.798;9.798;2024-03-02T12:47:41;15.00;99.60
7216;DHT22;3649;48.798;9.798;2024-03-02T12:50:09;15.10;99.30
7216;DHT22;3649;48.798;9.798;2024-03-02T12:52:36;15.00;98.60
7216;DHT22;3649;48.798;9.798;2024-03-02T12:55:05;15.10;98.80
7216;DHT22;3649;48.798;9.798;2024-03-02T12:57:33;15.20;98.80
7216;DHT22;3649;48.798;9.798;2024-03-02T13:00:03;15.20;98.90
7216;DHT22;3649;48.798;9.798;2024-03-02T13:02:40;15.10;99.00
7216;DHT22;3649;48.798;9.798;2024-03-02T13:05:07;15.20;98.90
7216;DHT22;3649;48.798;9.798;2024-03-02T13:07:41;15.20;99.10
7216;DHT22;3649;48.798;9.798;2024-03-02T13:10:08;15.60;98.40
7216;DHT22;3649;48.798;9.798;2024-03-02T13:12:36;15.30;98.20
7216;DHT22;3649;48.798;9.798;2024-03-02T13:15:04;15.60;98.70
7216;DHT22;3649;48.798;9.798;2024-03-02T13:17:34;15.20;98.50
7216;DHT22;3649;48.798;9.798;2024-03-02T13:20:05;15.20;98.80
7216;DHT22;3649;48.798;9.798;2024-03-02T13:22:35;15.20;98.80
7216;DHT22;3649;48.798;9.798;2024-03-02T13:25:02;15.20;98.70
7216;DHT22;3649;48.798;9.798;2024-03-02T13:27:33;15.20;98.90
7216;DHT22;3649;48.798;9.798;2024-03-02T13:30:01;15.20;98.90
7216;DHT22;3649;48.798;9.798;2024-03-02T13:32:29;15.30;98.70
7216;DHT22;3649;48.798;9.798;2024-03-02T13:34:56;15.30;98.40
7216;DHT22;3649;48.798;9.798;2024-03-02T13:37:23;15.30;98.20
7216;DHT22;3649;48.798;9.798;2024-03-02T13:39:50;15.30;97.70
7216;DHT22;3649;48.798;9.798;2024-03-02T13:42:17;15.30;97.40
7216;DHT22;3649;48.798;9.798;2024-03-02T13:44:44;15.30;97.50
7216;DHT22;3649;48.798;9.798;2024-03-02T13:47:16;15.50;97.90
7216;DHT22;3649;48.798;9.798;2024-03-02T13:49:43;15.40;98.10
7216;DHT22;3649;48.798;9.798;2024-03-02T13:52:12;15.40;98.20
7216;DHT22;3649;48.798;9.798;2024-03-02T13:54:41;15.40;98.60
7216;DHT22;3649;48.798;9.798;2024-03-02T13:57:09;15.40;98.60
7216;DHT22;3649;48.798;9.798;2024-03-02T13:59:37;15.40;98.70
7216;DHT22;3649;48.798;9.798;2024-03-02T14:02:05;15.40;99.00
7216;DHT22;3649;48.798;9.798;2024-03-02T14:04:34;15.30;99.10
7216;DHT22;3649;48.798;9.798;2024-03-02T14:07:01;15.30;99.10
7216;DHT22;3649;48.798;9.798;2024-03-02T14:09:29;15.30;98.50
7216;DHT22;3649;48.798;9.798;2024-03-02T14:11:56;15.40;98.40
7216;DHT22;3649;48.798;9.798;2024-03-02T14:14:23;15.40;98.50
7216;DHT22;3649;48.798;9.798;2024-03-02T14:16:51;15.40;98.80
7216;DHT22;3649;48.798;9.798;2024-03-02T14:19:18;15.40;98.90
7216;DHT22;3649;48.798;9.798;2024-03-02T14:21:45;15.40;99.20
7216;DHT22;3649;48.798;9.798;2024-03-02T14:24:12;15.40;99.30
7216;DHT22;3649;48.798;9.798;2024-03-02T14:26:39;15.30;99.10
7216;DHT22;3649;48.798;9.798;2024-03-02T14:29:07;15.40;99.40
7216;DHT22;3649;48.798;9.798;2024-03-02T14:31:34;15.30;99.60
7216;DHT22;3649;48.798;9.798;2024-03-02T14:34:01;15.40;99.70
7216;DHT22;3649;48.798;9.798;2024-03-02T14:36:28;15.30;99.90
7216;DHT22;3649;48.798;9.798;2024-03-02T14:38:55;15.40;99.90
7216;DHT22;3649;48.798;9.798;2024-03-02T14:41:22;15.40;99.90
7216;DHT22;3649;48.798;9.798;2024-03-02T14:43:51;15.40;99.90
7216;DHT22;3649;48.798;9.798;2024-03-02T14:46:19;15.40;99.90
7216;DHT22;3649;48.798;9.798;2024-03-02T14:48:46;15.40;99.90
7216;DHT22;3649;48.798;9.798;2024-03-02T14:51:14;15.30;99.90
7216;DHT22;3649;48.798;9.798;2024-03-02T14:53:41;15.30;99.90
7216;DHT22;3649;48.798;9.798;2024-03-02T14:56:08;15.80;99.90
7216;DHT22;3649;48.798;9.798;2024-03-02T14:58:36;16.40;99.90
7216;DHT22;3649;48.798;9.798;2024-03-02T15:01:04;16.80;99.60
7216;DHT22;3649;48.798;9.798;2024-03-02T15:03:33;17.10;99.30
7216;DHT22;3649;48.798;9.798;2024-03-02T15:06:01;17.20;99.40
7216;DHT22;3649;48.798;9.798;2024-03-02T15:08:28;17.10;99.20
7216;DHT22;3649;48.798;9.798;2024-03-02T15:10:54;17.10;99.30
7216;DHT22;3649;48.798;9.798;2024-03-02T15:13:26;17.00;99.40
7216;DHT22;3649;48.798;9.798;2024-03-02T15:15:53;16.90;99.60
7216;DHT22;3649;48.798;9.798;2024-03-02T15:18:20;16.80;99.80
7216;DHT22;3649;48.798;9.798;2024-03-02T15:20:47;16.60;99.90
7216;DHT22;3649;48.798;9.798;2024-03-02T15:23:14;16.50;99.90
7216;DHT22;3649;48.798;9.798;2024-03-02T15:25:41;16.50;99.90
7216;DHT22;3649;48.798;9.798;2024-03-02T15:28:08;16.20;99.90
7216;DHT22;3649;48.798;9.798;2024-03-02T15:30:35;16.10;99.90
7216;DHT22;3649;48.798;9.798;2024-03-02T15:33:03;16.30;99.90
7216;DHT22;3649;48.798;9.798;2024-03-02T15:35:30;15.90;99.90
7216;DHT22;3649;48.798;9.798;2024-03-02T15:37:57;16.40;99.90
7216;DHT22;3649;48.798;9.798;2024-03-02T15:40:24;15.80;99.90
7216;DHT22;3649;48.798;9.798;2024-03-02T15:42:51;15.80;99.90
7216;DHT22;3649;48.798;9.798;2024-03-02T15:45:17;15.80;99.90
7216;DHT22;3649;48.798;9.798;2024-03-02T15:47:44;15.80;99.90
7216;DHT22;3649;48.798;9.798;2024-03-02T15:50:11;15.70;99.90
7216;DHT22;3649;48.798;9.798;2024-03-02T15:52:39;15.70;99.90
7216;DHT22;3649;48.798;9.798;2024-03-02T15:55:06;15.80;99.90
7216;DHT22;3649;48.798;9.798;2024-03-02T15:57:34;15.50;99.90
7216;DHT22;3649;48.798;9.798;2024-03-02T16:00:01;15.50;99.90
7216;DHT22;3649;48.798;9.798;2024-03-02T16:02:28;15.50;99.90
7216;DHT22;3649;48.798;9.798;2024-03-02T16:04:56;15.40;99.90
7216;DHT22;3649;48.798;9.798;2024-03-02T16:07:23;15.40;99.90
7216;DHT22;3649;48.798;9.798;2024-03-02T16:09:50;15.50;99.90
7216;DHT22;3649;48.798;9.798;2024-03-02T16:12:17;15.40;99.90
7216;DHT22;3649;48.798;9.798;2024-03-02T16:14:44;15.40;99.90
7216;DHT22;3649;48.798;9.798;2024-03-02T16:17:11;15.30;99.90
7216;DHT22;3649;48.798;9.798;2024-03-02T16:19:37;15.40;99.90
7216;DHT22;3649;48.798;9.798;2024-03-02T16:22:08;15.20;99.90